createdAt,value
2018-10-12T00:00:34.272Z,17.94
2018-10-12T00:01:34.259Z,17.87
2018-10-12T00:02:34.250Z,17.87
2018-10-12T00:03:34.282Z,17.85
2018-10-12T00:04:34.242Z,17.82
2018-10-12T00:05:34.219Z,17.87
2018-10-12T00:06:34.235Z,17.94
2018-10-12T00:07:34.196Z,17.79
2018-10-12T00:08:34.187Z,17.87
2018-10-12T00:09:34.212Z,17.86
2018-10-12T00:10:34.188Z,17.80
2018-10-12T00:11:34.159Z,17.78
2018-10-12T00:12:34.143Z,17.87
2018-10-12T00:13:34.159Z,17.76
2018-10-12T00:14:34.152Z,17.80
2018-10-12T00:15:34.117Z,17.85
2018-10-12T00:16:34.096Z,17.79
2018-10-12T00:17:34.084Z,17.80
2018-10-12T00:18:34.075Z,17.82
2018-10-12T00:19:34.201Z,17.82
2018-10-12T00:20:34.051Z,17.83
2018-10-12T00:21:34.038Z,17.82
2018-10-12T00:22:34.040Z,17.74
2018-10-12T00:23:34.016Z,17.80
2018-10-12T00:24:34.029Z,17.85
2018-10-12T00:25:34.000Z,17.76
2018-10-12T00:26:33.997Z,17.74
2018-10-12T00:27:34.019Z,17.79
2018-10-12T00:28:34.005Z,17.82
2018-10-12T00:29:33.980Z,17.76
2018-10-12T00:30:33.987Z,17.71
2018-10-12T00:31:33.932Z,17.72
2018-10-12T00:32:33.924Z,17.70
2018-10-12T00:33:33.942Z,17.71
2018-10-12T00:34:33.895Z,17.78
2018-10-12T00:35:33.890Z,17.68
2018-10-12T00:36:33.903Z,17.76
2018-10-12T00:37:33.866Z,17.79
2018-10-12T00:38:33.876Z,17.70
2018-10-12T00:39:33.842Z,17.74
2018-10-12T00:40:33.873Z,17.78
2018-10-12T00:41:33.821Z,17.65
2018-10-12T00:42:33.829Z,17.67
2018-10-12T00:43:33.797Z,17.67
2018-10-12T00:44:33.792Z,17.67
2018-10-12T00:45:33.811Z,17.64
2018-10-12T00:46:33.768Z,17.70
2018-10-12T00:47:33.754Z,17.68
2018-10-12T00:48:33.742Z,17.65
2018-10-12T00:49:33.799Z,17.56
2018-10-12T00:50:33.750Z,17.65
2018-10-12T00:51:33.706Z,17.64
2018-10-12T00:52:33.709Z,17.65
2018-10-12T00:53:33.682Z,17.63
2018-10-12T00:54:33.772Z,17.70
2018-10-12T00:55:33.662Z,17.64
2018-10-12T00:56:33.656Z,17.63
2018-10-12T00:57:33.643Z,17.65
2018-10-12T00:58:33.652Z,17.49
2018-10-12T00:59:33.613Z,17.64
2018-10-12T01:00:33.607Z,17.64
2018-10-12T01:01:33.634Z,17.64
2018-10-12T01:02:33.591Z,17.57
2018-10-12T01:03:33.578Z,17.68
2018-10-12T01:04:33.562Z,17.54
2018-10-12T01:05:33.555Z,17.57
2018-10-12T01:06:33.600Z,17.64
2018-10-12T01:07:33.533Z,17.64
2018-10-12T01:08:33.519Z,17.64
2018-10-12T01:09:33.535Z,17.56
2018-10-12T01:10:33.554Z,17.67
2018-10-12T01:11:33.486Z,17.63
2018-10-12T01:12:33.472Z,17.60
2018-10-12T01:13:33.467Z,17.64
2018-10-12T01:14:33.450Z,17.57
2018-10-12T01:15:33.473Z,17.70
2018-10-12T01:16:33.426Z,17.63
2018-10-12T01:17:33.414Z,17.64
2018-10-12T01:18:33.481Z,17.60
2018-10-12T01:19:33.405Z,17.64
2018-10-12T01:20:33.417Z,17.65
2018-10-12T01:21:33.370Z,17.67
2018-10-12T01:22:33.391Z,17.68
2018-10-12T01:23:33.353Z,17.63
2018-10-12T01:24:33.339Z,17.65
2018-10-12T01:25:33.364Z,17.70
2018-10-12T01:26:33.319Z,17.65
2018-10-12T01:27:33.332Z,17.65
2018-10-12T01:28:33.295Z,17.64
2018-10-12T01:29:33.288Z,17.68
2018-10-12T01:30:33.299Z,17.65
2018-10-12T01:31:33.264Z,17.59
2018-10-12T01:32:33.250Z,17.65
2018-10-12T01:33:33.307Z,17.63
2018-10-12T01:34:33.296Z,17.57
2018-10-12T01:35:33.218Z,17.67
2018-10-12T01:36:33.211Z,17.67
2018-10-12T01:37:33.230Z,17.52
2018-10-12T01:38:33.199Z,17.49
2018-10-12T01:39:33.180Z,17.60
2018-10-12T01:40:33.161Z,17.57
2018-10-12T01:41:33.188Z,17.42
2018-10-12T01:42:33.141Z,17.45
2018-10-12T01:43:33.129Z,17.44
2018-10-12T01:44:33.118Z,17.42
2018-10-12T01:45:33.105Z,17.51
2018-10-12T01:46:33.140Z,17.46
2018-10-12T01:47:33.086Z,17.49
2018-10-12T01:48:33.078Z,17.52
2018-10-12T01:49:33.059Z,17.60
2018-10-12T01:50:33.060Z,17.52
2018-10-12T01:51:33.074Z,17.54
2018-10-12T01:52:33.031Z,17.63
2018-10-12T01:53:33.019Z,17.54
2018-10-12T01:54:33.006Z,17.57
2018-10-12T01:55:33.029Z,17.70
2018-10-12T01:56:33.011Z,17.57
2018-10-12T01:57:32.975Z,17.63
2018-10-12T01:58:32.970Z,17.64
2018-10-12T01:59:32.984Z,17.64
2018-10-12T02:00:32.968Z,17.56
2018-10-12T02:01:32.934Z,17.52
2018-10-12T02:02:32.977Z,17.56
2018-10-12T02:03:32.907Z,17.59
2018-10-12T02:04:32.900Z,17.54
2018-10-12T02:05:32.885Z,17.54
2018-10-12T02:06:32.877Z,17.65
2018-10-12T02:07:32.897Z,17.63
2018-10-12T02:08:32.854Z,17.57
2018-10-12T02:09:32.839Z,17.52
2018-10-12T02:10:32.833Z,17.56
2018-10-12T02:11:32.821Z,17.54
2018-10-12T02:12:32.853Z,17.52
2018-10-12T02:13:32.793Z,17.51
2018-10-12T02:14:32.845Z,17.48
2018-10-12T02:15:32.779Z,17.46
2018-10-12T02:16:32.765Z,17.42
2018-10-12T02:17:32.778Z,17.42
2018-10-12T02:18:32.766Z,17.42
2018-10-12T02:19:32.724Z,17.41
2018-10-12T02:20:32.714Z,17.41
2018-10-12T02:21:32.740Z,17.44
2018-10-12T02:22:32.701Z,17.42
2018-10-12T02:23:32.685Z,17.41
2018-10-12T02:24:32.669Z,17.45
2018-10-12T02:25:32.685Z,17.44
2018-10-12T02:26:32.656Z,17.46
2018-10-12T02:27:32.642Z,17.38
2018-10-12T02:28:32.627Z,17.42
2018-10-12T02:29:32.656Z,17.41
2018-10-12T02:30:32.684Z,17.44
2018-10-12T02:31:32.608Z,17.44
2018-10-12T02:32:32.585Z,17.34
2018-10-12T02:33:32.595Z,17.36
2018-10-12T02:34:32.598Z,17.30
2018-10-12T02:35:32.553Z,17.23
2018-10-12T02:36:32.534Z,17.30
2018-10-12T02:37:32.526Z,17.38
2018-10-12T02:38:32.523Z,17.33
2018-10-12T02:39:32.541Z,17.23
2018-10-12T02:40:32.502Z,17.31
2018-10-12T02:41:32.486Z,17.26
2018-10-12T02:42:32.471Z,17.26
2018-10-12T02:43:32.462Z,17.20
2018-10-12T02:44:32.481Z,17.24
2018-10-12T02:45:32.436Z,17.23
2018-10-12T02:46:32.423Z,17.30
2018-10-12T02:47:32.419Z,17.27
2018-10-12T02:48:32.433Z,17.23
2018-10-12T02:49:32.400Z,17.22
2018-10-12T02:50:32.403Z,17.22
2018-10-12T02:51:32.368Z,17.22
2018-10-12T02:52:32.358Z,17.16
2018-10-12T02:53:32.382Z,17.20
2018-10-12T02:54:32.349Z,17.08
2018-10-12T02:55:32.395Z,17.09
2018-10-12T02:56:32.328Z,17.05
2018-10-12T02:57:32.311Z,17.09
2018-10-12T02:58:32.329Z,17.08
2018-10-12T02:59:32.281Z,17.06
2018-10-12T03:00:32.269Z,17.08
2018-10-12T03:01:32.256Z,17.08
2018-10-12T03:02:32.255Z,17.11
2018-10-12T03:03:32.268Z,17.12
2018-10-12T03:04:32.221Z,17.11
2018-10-12T03:05:32.211Z,17.08
2018-10-12T03:06:32.202Z,17.09
2018-10-12T03:07:32.188Z,17.11
2018-10-12T03:08:32.198Z,17.14
2018-10-12T03:09:32.166Z,17.09
2018-10-12T03:10:32.158Z,17.11
2018-10-12T03:11:32.142Z,17.08
2018-10-12T03:12:32.131Z,17.06
2018-10-12T03:13:32.188Z,17.09
2018-10-12T03:14:32.108Z,17.09
2018-10-12T03:15:32.134Z,17.04
2018-10-12T03:16:32.122Z,16.99
2018-10-12T03:17:32.078Z,17.05
2018-10-12T03:18:32.066Z,17.05
2018-10-12T03:19:32.052Z,16.99
2018-10-12T03:20:32.042Z,17.04
2018-10-12T03:21:32.063Z,16.96
2018-10-12T03:22:32.017Z,17.06
2018-10-12T03:23:32.032Z,16.96
2018-10-12T03:24:31.999Z,16.89
2018-10-12T03:25:31.982Z,16.93
2018-10-12T03:26:31.971Z,16.91
2018-10-12T03:27:31.959Z,16.90
2018-10-12T03:28:31.988Z,16.90
2018-10-12T03:29:31.948Z,16.94
2018-10-12T03:30:31.931Z,16.91
2018-10-12T03:31:31.920Z,16.89
2018-10-12T03:32:31.947Z,16.90
2018-10-12T03:33:31.892Z,16.89
2018-10-12T03:34:31.882Z,16.89
2018-10-12T03:35:31.901Z,16.93
2018-10-12T03:36:31.865Z,16.93
2018-10-12T03:37:31.909Z,16.90
2018-10-12T03:38:31.833Z,16.86
2018-10-12T03:39:31.823Z,16.90
2018-10-12T03:40:31.853Z,16.91
2018-10-12T03:41:31.804Z,16.90
2018-10-12T03:42:31.836Z,16.96
2018-10-12T03:43:31.785Z,16.96
2018-10-12T03:44:31.770Z,16.91
2018-10-12T03:45:31.794Z,16.93
2018-10-12T03:46:31.751Z,16.89
2018-10-12T03:47:31.742Z,16.89
2018-10-12T03:48:31.754Z,16.93
2018-10-12T03:49:31.717Z,16.84
2018-10-12T03:50:31.704Z,16.90
2018-10-12T03:51:31.693Z,16.86
2018-10-12T03:52:31.710Z,16.86
2018-10-12T03:53:31.736Z,16.86
2018-10-12T03:54:31.655Z,16.86
2018-10-12T03:55:31.648Z,16.86
2018-10-12T03:56:31.637Z,16.81
2018-10-12T03:57:31.670Z,16.87
2018-10-12T03:58:31.615Z,16.84
2018-10-12T03:59:31.603Z,16.81
2018-10-12T04:00:31.588Z,16.71
2018-10-12T04:01:31.623Z,16.76
2018-10-12T04:02:31.585Z,16.68
2018-10-12T04:03:31.573Z,16.69
2018-10-12T04:04:31.546Z,16.74
2018-10-12T04:05:31.540Z,16.68
2018-10-12T04:06:31.548Z,16.68
2018-10-12T04:07:31.515Z,16.69
2018-10-12T04:08:31.501Z,16.69
2018-10-12T04:09:31.608Z,16.72
2018-10-12T04:10:31.476Z,16.66
2018-10-12T04:11:31.467Z,16.66
2018-10-12T04:12:31.506Z,16.66
2018-10-12T04:13:31.448Z,16.66
2018-10-12T04:14:31.466Z,16.65
2018-10-12T04:15:31.460Z,16.58
2018-10-12T04:16:31.409Z,16.56
2018-10-12T04:17:31.395Z,16.60
2018-10-12T04:18:31.391Z,16.56
2018-10-12T04:19:31.372Z,16.60
2018-10-12T04:20:31.397Z,16.56
2018-10-12T04:21:31.351Z,16.61
2018-10-12T04:22:31.376Z,16.61
2018-10-12T04:23:31.329Z,16.58
2018-10-12T04:24:31.317Z,16.57
2018-10-12T04:25:31.307Z,16.56
2018-10-12T04:26:31.329Z,16.53
2018-10-12T04:27:31.284Z,16.56
2018-10-12T04:28:31.299Z,16.43
2018-10-12T04:29:31.262Z,16.43
2018-10-12T04:30:31.246Z,16.46
2018-10-12T04:31:31.246Z,16.49
2018-10-12T04:32:31.238Z,16.43
2018-10-12T04:33:31.299Z,16.49
2018-10-12T04:34:31.204Z,16.41
2018-10-12T04:35:31.196Z,16.42
2018-10-12T04:36:31.191Z,16.50
2018-10-12T04:37:31.216Z,16.46
2018-10-12T04:38:31.158Z,16.50
2018-10-12T04:39:31.147Z,16.53
2018-10-12T04:40:31.153Z,16.50
2018-10-12T04:41:31.126Z,16.39
2018-10-12T04:42:31.153Z,16.46
2018-10-12T04:43:31.104Z,16.42
2018-10-12T04:44:31.096Z,16.51
2018-10-12T04:45:31.083Z,16.50
2018-10-12T04:46:31.078Z,16.50
2018-10-12T04:47:31.129Z,16.43
2018-10-12T04:48:31.055Z,16.41
2018-10-12T04:49:31.137Z,16.43
2018-10-12T04:50:31.042Z,16.42
2018-10-12T04:51:31.013Z,16.33
2018-10-12T04:52:31.001Z,16.42
2018-10-12T04:53:30.992Z,16.33
2018-10-12T04:54:31.016Z,16.26
2018-10-12T04:55:30.968Z,16.35
2018-10-12T04:56:30.961Z,16.29
2018-10-12T04:57:30.946Z,16.31
2018-10-12T04:58:30.948Z,16.28
2018-10-12T04:59:30.976Z,16.23
2018-10-12T05:00:30.919Z,16.20
2018-10-12T05:01:30.904Z,16.16
2018-10-12T05:02:30.893Z,16.10
2018-10-12T05:03:30.880Z,16.10
2018-10-12T05:04:30.898Z,16.10
2018-10-12T05:05:30.852Z,16.00
2018-10-12T05:06:30.855Z,16.05
2018-10-12T05:07:30.853Z,16.05
2018-10-12T05:08:30.826Z,15.94
2018-10-12T05:09:30.830Z,15.91
2018-10-12T05:10:30.802Z,15.95
2018-10-12T05:11:30.803Z,15.97
2018-10-12T05:12:30.812Z,15.86
2018-10-12T05:13:30.869Z,15.91
2018-10-12T05:14:30.758Z,15.82
2018-10-12T05:15:30.740Z,15.84
2018-10-12T05:16:30.766Z,15.83
2018-10-12T05:17:30.722Z,15.84
2018-10-12T05:18:30.717Z,15.77
2018-10-12T05:19:30.697Z,15.84
2018-10-12T05:20:30.711Z,15.72
2018-10-12T05:21:30.708Z,15.68
2018-10-12T05:22:30.671Z,15.77
2018-10-12T05:23:30.666Z,15.79
2018-10-12T05:24:30.642Z,15.75
2018-10-12T05:25:31.371Z,15.73
2018-10-12T05:26:30.620Z,15.70
2018-10-12T05:27:30.632Z,15.68
2018-10-12T05:28:30.633Z,15.70
2018-10-12T05:29:30.620Z,15.75
2018-10-12T05:30:30.574Z,15.76
2018-10-12T05:31:30.566Z,15.75
2018-10-12T05:32:30.550Z,15.72
2018-10-12T05:33:30.605Z,15.70
2018-10-12T05:34:30.559Z,15.72
2018-10-12T05:35:30.525Z,15.75
2018-10-12T05:36:30.547Z,15.61
2018-10-12T05:37:30.500Z,15.73
2018-10-12T05:38:30.493Z,15.75
2018-10-12T05:39:30.471Z,15.75
2018-10-12T05:40:30.514Z,15.75
2018-10-12T05:41:30.478Z,15.73
2018-10-12T05:42:30.464Z,15.83
2018-10-12T05:43:30.604Z,15.84
2018-10-12T05:44:30.424Z,15.82
2018-10-12T05:45:30.407Z,15.90
2018-10-12T05:46:30.443Z,15.88
2018-10-12T05:47:30.395Z,15.97
2018-10-12T05:48:30.373Z,15.97
2018-10-12T05:49:30.375Z,15.88
2018-10-12T05:50:30.352Z,15.98
2018-10-12T05:51:30.373Z,15.84
2018-10-12T05:52:30.391Z,15.83
2018-10-12T05:53:30.316Z,15.91
2018-10-12T05:54:30.314Z,15.90
2018-10-12T05:55:30.340Z,15.94
2018-10-12T05:56:30.288Z,15.86
2018-10-12T05:57:30.276Z,15.94
2018-10-12T05:58:30.267Z,15.95
2018-10-12T05:59:30.250Z,15.98
2018-10-12T06:00:30.281Z,15.98
2018-10-12T06:01:30.332Z,15.94
2018-10-12T06:02:30.219Z,15.94
2018-10-12T06:03:30.204Z,15.92
2018-10-12T06:04:30.223Z,15.94
2018-10-12T06:05:30.189Z,16.04
2018-10-12T06:06:30.169Z,16.01
2018-10-12T06:07:30.188Z,16.04
2018-10-12T06:08:30.147Z,16.08
2018-10-12T06:09:30.197Z,16.04
2018-10-12T06:10:30.158Z,16.12
2018-10-12T06:11:30.223Z,16.01
2018-10-12T06:12:30.136Z,16.04
2018-10-12T06:13:30.102Z,16.08
2018-10-12T06:14:30.112Z,16.08
2018-10-12T06:15:30.165Z,16.08
2018-10-12T06:16:30.202Z,16.04
2018-10-12T06:17:30.046Z,16.10
2018-10-12T06:18:30.052Z,16.17
2018-10-12T06:19:30.036Z,16.15
2018-10-12T06:20:30.044Z,16.16
2018-10-12T06:21:30.052Z,16.17
2018-10-12T06:22:29.997Z,16.24
2018-10-12T06:23:30.011Z,16.24
2018-10-12T06:24:29.977Z,16.29
2018-10-12T06:25:29.969Z,16.24
2018-10-12T06:26:29.947Z,16.23
2018-10-12T06:27:29.936Z,16.29
2018-10-12T06:28:29.955Z,16.39
2018-10-12T06:29:29.918Z,16.33
2018-10-12T06:30:29.899Z,16.35
2018-10-12T06:31:29.931Z,16.38
2018-10-12T06:32:29.881Z,16.36
2018-10-12T06:33:29.871Z,16.42
2018-10-12T06:34:29.862Z,16.42
2018-10-12T06:35:29.870Z,16.43
2018-10-12T06:36:29.879Z,16.38
2018-10-12T06:37:29.833Z,16.38
2018-10-12T06:38:29.849Z,16.42
2018-10-12T06:39:29.799Z,16.46
2018-10-12T06:40:29.797Z,16.41
2018-10-12T06:41:29.910Z,16.54
2018-10-12T06:42:29.768Z,16.49
2018-10-12T06:43:29.787Z,16.42
2018-10-12T06:44:29.770Z,16.49
2018-10-12T06:45:29.732Z,16.50
2018-10-12T06:46:29.800Z,16.58
2018-10-12T06:47:29.709Z,16.50
2018-10-12T06:48:29.696Z,16.61
2018-10-12T06:49:29.714Z,16.53
2018-10-12T06:50:29.758Z,16.58
2018-10-12T06:51:29.692Z,16.69
2018-10-12T06:52:29.659Z,16.54
2018-10-12T06:53:29.644Z,16.72
2018-10-12T06:54:29.667Z,16.69
2018-10-12T06:55:29.624Z,16.74
2018-10-12T06:56:29.635Z,16.75
2018-10-12T06:57:29.598Z,16.69
2018-10-12T06:58:29.593Z,16.72
2018-10-12T06:59:29.609Z,16.78
2018-10-12T07:00:29.568Z,16.79
2018-10-12T07:01:29.556Z,16.86
2018-10-12T07:02:29.582Z,16.83
2018-10-12T07:03:29.538Z,16.90
2018-10-12T07:04:29.528Z,16.94
2018-10-12T07:05:29.582Z,16.97
2018-10-12T07:06:29.540Z,16.93
2018-10-12T07:07:29.484Z,17.05
2018-10-12T07:08:29.471Z,17.06
2018-10-12T07:09:29.462Z,16.96
2018-10-12T07:10:29.480Z,17.05
2018-10-12T07:11:29.448Z,17.09
2018-10-12T07:12:29.428Z,17.14
2018-10-12T07:13:29.424Z,17.09
2018-10-12T07:14:29.408Z,17.08
2018-10-12T07:15:29.460Z,17.15
2018-10-12T07:16:29.386Z,17.16
2018-10-12T07:17:29.372Z,17.24
2018-10-12T07:18:29.363Z,17.27
2018-10-12T07:19:29.437Z,17.22
2018-10-12T07:20:29.373Z,17.30
2018-10-12T07:21:29.363Z,17.26
2018-10-12T07:22:29.318Z,17.33
2018-10-12T07:23:29.306Z,17.39
2018-10-12T07:24:29.298Z,17.41
2018-10-12T07:25:29.277Z,17.44
2018-10-12T07:26:29.305Z,17.44
2018-10-12T07:27:29.269Z,17.57
2018-10-12T07:28:29.250Z,17.51
2018-10-12T07:29:29.270Z,17.49
2018-10-12T07:30:29.231Z,17.65
2018-10-12T07:31:29.289Z,17.67
2018-10-12T07:32:29.233Z,17.64
2018-10-12T07:33:29.193Z,17.78
2018-10-12T07:34:29.184Z,17.71
2018-10-12T07:35:29.218Z,17.86
2018-10-12T07:36:29.186Z,17.79
2018-10-12T07:37:29.204Z,17.89
2018-10-12T07:38:29.137Z,17.90
2018-10-12T07:39:29.165Z,18.01
2018-10-12T07:40:29.117Z,18.04
2018-10-12T07:41:29.113Z,18.00
2018-10-12T07:42:29.168Z,18.07
2018-10-12T07:43:29.082Z,18.03
2018-10-12T07:44:29.115Z,18.05
2018-10-12T07:45:29.061Z,18.18
2018-10-12T07:46:29.056Z,18.20
2018-10-12T07:47:29.218Z,18.18
2018-10-12T07:48:29.033Z,18.18
2018-10-12T07:49:29.021Z,18.28
2018-10-12T07:50:29.038Z,18.28
2018-10-12T07:51:28.997Z,18.33
2018-10-12T07:52:29.012Z,18.28
2018-10-12T07:53:28.969Z,18.33
2018-10-12T07:54:28.956Z,18.37
2018-10-12T07:55:28.956Z,18.41
2018-10-12T07:56:28.951Z,18.44
2018-10-12T07:57:28.973Z,18.56
2018-10-12T07:58:28.967Z,18.58
2018-10-12T07:59:28.903Z,18.63
2018-10-12T08:00:28.914Z,18.56
2018-10-12T08:01:28.894Z,18.60
2018-10-12T08:02:28.902Z,18.66
2018-10-12T08:03:28.859Z,18.71
2018-10-12T08:04:28.879Z,18.77
2018-10-12T08:05:28.834Z,18.74
2018-10-12T08:06:28.845Z,18.84
2018-10-12T08:07:28.810Z,18.78
2018-10-12T08:08:28.805Z,18.88
2018-10-12T08:09:28.841Z,18.92
2018-10-12T08:10:28.809Z,18.93
2018-10-12T08:11:28.776Z,18.89
2018-10-12T08:12:28.760Z,19.08
2018-10-12T08:13:28.753Z,19.09
2018-10-12T08:14:28.762Z,19.16
2018-10-12T08:15:28.721Z,19.11
2018-10-12T08:16:28.710Z,19.18
2018-10-12T08:17:28.698Z,19.21
2018-10-12T08:18:28.733Z,19.18
2018-10-12T08:19:28.677Z,19.22
2018-10-12T08:20:28.745Z,19.22
2018-10-12T08:21:28.651Z,19.31
2018-10-12T08:22:28.644Z,19.27
2018-10-12T08:23:28.670Z,19.36
2018-10-12T08:24:28.617Z,19.33
2018-10-12T08:25:28.636Z,19.39
2018-10-12T08:26:28.594Z,19.39
2018-10-12T08:27:28.632Z,19.40
2018-10-12T08:28:28.572Z,19.44
2018-10-12T08:29:28.565Z,19.51
2018-10-12T08:30:28.584Z,19.47
2018-10-12T08:31:28.570Z,19.54
2018-10-12T08:32:28.558Z,19.52
2018-10-12T08:33:28.523Z,19.52
2018-10-12T08:34:28.510Z,19.58
2018-10-12T08:35:28.495Z,19.63
2018-10-12T08:36:28.576Z,19.63
2018-10-12T08:37:28.471Z,19.64
2018-10-12T08:38:28.462Z,19.63
2018-10-12T08:39:28.451Z,19.73
2018-10-12T08:40:28.437Z,19.62
2018-10-12T08:41:28.472Z,19.62
2018-10-12T08:42:28.422Z,19.79
2018-10-12T08:43:28.410Z,19.74
2018-10-12T08:44:28.393Z,19.76
2018-10-12T08:45:28.383Z,19.71
2018-10-12T08:46:28.400Z,19.79
2018-10-12T08:47:28.381Z,19.73
2018-10-12T08:48:28.354Z,19.74
2018-10-12T08:49:28.349Z,19.85
2018-10-12T08:50:28.330Z,19.82
2018-10-12T08:51:28.387Z,19.91
2018-10-12T08:52:28.310Z,19.89
2018-10-12T08:53:28.305Z,19.92
2018-10-12T08:54:28.291Z,19.94
2018-10-12T08:55:28.298Z,19.95
2018-10-12T08:56:28.319Z,20.02
2018-10-12T08:57:28.253Z,19.96
2018-10-12T08:58:28.298Z,20.02
2018-10-12T08:59:28.234Z,20.02
2018-10-12T09:00:28.221Z,20.02
2018-10-12T09:01:28.264Z,19.92
2018-10-12T09:02:28.196Z,20.03
2018-10-12T09:03:28.185Z,20.11
2018-10-12T09:04:28.177Z,20.03
2018-10-12T09:05:28.170Z,19.95
2018-10-12T09:06:28.184Z,19.95
2018-10-12T09:07:28.189Z,19.92
2018-10-12T09:08:28.130Z,19.96
2018-10-12T09:09:28.156Z,19.96
2018-10-12T09:10:28.110Z,20.02
2018-10-12T09:11:28.096Z,20.00
2018-10-12T09:12:28.126Z,20.03
2018-10-12T09:13:28.071Z,20.10
2018-10-12T09:14:28.061Z,20.00
2018-10-12T09:15:28.088Z,20.03
2018-10-12T09:16:28.064Z,20.04
2018-10-12T09:17:28.033Z,20.07
2018-10-12T09:18:28.032Z,20.09
2018-10-12T09:19:28.005Z,20.10
2018-10-12T09:20:28.148Z,20.14
2018-10-12T09:21:27.983Z,20.13
2018-10-12T09:22:27.974Z,20.18
2018-10-12T09:23:28.062Z,20.11
2018-10-12T09:24:27.955Z,20.10
2018-10-12T09:25:27.938Z,20.13
2018-10-12T09:26:27.965Z,20.18
2018-10-12T09:27:27.931Z,20.26
2018-10-12T09:28:27.906Z,20.29
2018-10-12T09:29:27.942Z,20.28
2018-10-12T09:30:27.951Z,20.40
2018-10-12T09:31:27.871Z,20.48
2018-10-12T09:32:27.861Z,20.55
2018-10-12T09:33:27.862Z,20.51
2018-10-12T09:34:27.866Z,20.51
2018-10-12T09:35:27.830Z,20.58
2018-10-12T09:36:27.881Z,20.62
2018-10-12T09:37:27.807Z,20.67
2018-10-12T09:38:27.820Z,20.62
2018-10-12T09:39:27.779Z,20.60
2018-10-12T09:40:27.776Z,20.58
2018-10-12T09:41:27.798Z,20.55
2018-10-12T09:42:27.787Z,20.63
2018-10-12T09:43:27.738Z,20.51
2018-10-12T09:44:27.743Z,20.56
2018-10-12T09:45:27.756Z,20.62
2018-10-12T09:46:27.702Z,20.50
2018-10-12T09:47:27.778Z,20.44
2018-10-12T09:48:27.724Z,20.56
2018-10-12T09:49:27.700Z,20.52
2018-10-12T09:50:27.827Z,20.62
2018-10-12T09:51:27.649Z,20.60
2018-10-12T09:52:27.632Z,20.62
2018-10-12T09:53:27.654Z,20.62
2018-10-12T09:54:27.612Z,20.75
2018-10-12T09:55:27.632Z,20.80
2018-10-12T09:56:27.604Z,20.77
2018-10-12T09:57:27.607Z,20.80
2018-10-12T09:58:27.572Z,20.80
2018-10-12T09:59:27.557Z,20.90
2018-10-12T10:00:27.757Z,20.88
2018-10-12T10:01:27.533Z,20.95
2018-10-12T10:02:27.527Z,20.87
2018-10-12T10:03:27.571Z,20.99
2018-10-12T10:04:27.500Z,20.97
2018-10-12T10:05:27.531Z,20.96
2018-10-12T10:06:27.473Z,20.92
2018-10-12T10:07:27.538Z,21.03
2018-10-12T10:08:27.600Z,21.06
2018-10-12T10:09:27.440Z,21.07
2018-10-12T10:10:27.468Z,21.06
2018-10-12T10:11:27.417Z,21.02
2018-10-12T10:12:27.446Z,21.11
2018-10-12T10:13:27.394Z,21.09
2018-10-12T10:14:27.397Z,21.09
2018-10-12T10:15:27.374Z,21.09
2018-10-12T10:16:27.397Z,21.14
2018-10-12T10:17:27.362Z,21.15
2018-10-12T10:18:27.347Z,21.21
2018-10-12T10:19:27.486Z,21.18
2018-10-12T10:20:27.367Z,21.21
2018-10-12T10:21:27.340Z,21.27
2018-10-12T10:22:27.309Z,21.29
2018-10-12T10:23:27.313Z,21.33
2018-10-12T10:24:27.275Z,21.40
2018-10-12T10:25:27.271Z,21.35
2018-10-12T10:26:27.260Z,21.43
2018-10-12T10:27:27.301Z,21.33
2018-10-12T10:28:27.251Z,21.45
2018-10-12T10:29:27.221Z,21.48
2018-10-12T10:30:27.212Z,21.48
2018-10-12T10:31:27.194Z,21.55
2018-10-12T10:32:27.233Z,21.46
2018-10-12T10:33:27.175Z,21.52
2018-10-12T10:34:27.175Z,21.54
2018-10-12T10:35:27.157Z,21.52
2018-10-12T10:36:27.141Z,21.60
2018-10-12T10:37:27.164Z,21.61
2018-10-12T10:38:27.127Z,21.64
2018-10-12T10:39:27.137Z,21.60
2018-10-12T10:40:27.108Z,21.61
2018-10-12T10:41:27.096Z,21.64
2018-10-12T10:42:27.113Z,21.67
2018-10-12T10:43:27.085Z,21.62
2018-10-12T10:44:27.058Z,21.69
2018-10-12T10:45:27.042Z,21.75
2018-10-12T10:46:27.217Z,21.82
2018-10-12T10:47:27.055Z,21.82
2018-10-12T10:48:27.012Z,21.85
2018-10-12T10:49:27.007Z,21.89
2018-10-12T10:50:26.991Z,21.88
2018-10-12T10:51:26.985Z,21.96
2018-10-12T10:52:27.027Z,21.95
2018-10-12T10:53:27.005Z,21.96
2018-10-12T10:54:26.952Z,22.04
2018-10-12T10:55:26.930Z,22.00
2018-10-12T10:56:26.925Z,22.06
2018-10-12T10:57:26.958Z,21.95
2018-10-12T10:58:26.907Z,22.08
2018-10-12T10:59:26.923Z,22.10
2018-10-12T11:00:26.878Z,22.07
2018-10-12T11:01:26.870Z,22.14
2018-10-12T11:02:26.906Z,22.14
2018-10-12T11:03:26.850Z,22.17
2018-10-12T11:04:26.842Z,22.20
2018-10-12T11:05:26.816Z,22.28
2018-10-12T11:06:26.924Z,22.29
2018-10-12T11:07:26.801Z,22.39
2018-10-12T11:08:26.796Z,22.36
2018-10-12T11:09:26.778Z,22.41
2018-10-12T11:10:26.768Z,22.45
2018-10-12T11:11:26.786Z,22.39
2018-10-12T11:12:26.750Z,22.47
2018-10-12T11:13:26.762Z,22.50
2018-10-12T11:14:26.719Z,22.45
2018-10-12T11:15:26.746Z,22.50
2018-10-12T11:16:26.707Z,22.53
2018-10-12T11:17:26.689Z,22.51
2018-10-12T11:18:26.714Z,22.55
2018-10-12T11:19:26.733Z,22.45
2018-10-12T11:20:26.652Z,22.50
2018-10-12T11:21:26.645Z,22.53
2018-10-12T11:22:26.637Z,22.55
2018-10-12T11:23:26.649Z,22.63
2018-10-12T11:24:26.714Z,22.62
2018-10-12T11:25:26.602Z,22.68
2018-10-12T11:26:26.654Z,22.60
2018-10-12T11:27:26.582Z,22.65
2018-10-12T11:28:26.565Z,22.65
2018-10-12T11:29:26.582Z,22.70
2018-10-12T11:30:26.544Z,22.78
2018-10-12T11:31:26.607Z,22.80
2018-10-12T11:32:26.529Z,22.81
2018-10-12T11:33:26.513Z,22.83
2018-10-12T11:34:26.531Z,22.81
2018-10-12T11:35:26.492Z,22.84
2018-10-12T11:36:26.473Z,22.94
2018-10-12T11:37:26.460Z,22.96
2018-10-12T11:38:26.518Z,23.03
2018-10-12T11:39:26.555Z,23.03
2018-10-12T11:40:26.426Z,23.10
2018-10-12T11:41:26.445Z,23.18
2018-10-12T11:42:26.406Z,23.23
2018-10-12T11:43:26.402Z,23.21
2018-10-12T11:44:26.384Z,23.25
2018-10-12T11:45:26.533Z,23.27
2018-10-12T11:46:40.130Z,23.36
2018-10-12T11:47:52.986Z,23.28
2018-10-12T11:48:26.340Z,23.28
2018-10-12T11:49:26.330Z,23.34
2018-10-12T11:50:26.350Z,23.36
2018-10-12T11:51:26.319Z,23.37
2018-10-12T11:52:26.300Z,23.31
2018-10-12T11:53:26.288Z,23.40
2018-10-12T11:54:26.275Z,23.39
2018-10-12T11:55:26.366Z,23.34
2018-10-12T11:56:26.264Z,23.40
2018-10-12T11:57:26.237Z,23.47
2018-10-12T11:58:26.275Z,23.54
2018-10-12T11:59:26.215Z,23.59
2018-10-12T12:00:26.248Z,23.61
2018-10-12T12:01:26.195Z,23.68
2018-10-12T12:02:26.223Z,23.73
2018-10-12T12:03:26.237Z,23.86
2018-10-12T12:04:26.162Z,23.80
2018-10-12T12:05:26.156Z,23.83
2018-10-12T12:06:26.198Z,23.84
2018-10-12T12:07:26.275Z,23.92
2018-10-12T12:08:26.128Z,23.92
2018-10-12T12:09:26.142Z,24.05
2018-10-12T12:10:26.096Z,24.06
2018-10-12T12:11:26.087Z,24.21
2018-10-12T12:12:26.109Z,24.20
2018-10-12T12:13:26.107Z,24.40
2018-10-12T12:14:26.085Z,24.40
2018-10-12T12:15:26.049Z,24.58
2018-10-12T12:16:26.032Z,24.70
2018-10-12T12:17:26.069Z,24.78
2018-10-12T12:18:26.008Z,24.91
2018-10-12T12:19:26.133Z,25.10
2018-10-12T12:20:25.990Z,25.16
2018-10-12T12:21:25.990Z,25.26
2018-10-12T12:22:26.014Z,25.43
2018-10-12T12:23:25.970Z,25.48
2018-10-12T12:24:25.942Z,25.53
2018-10-12T12:25:25.993Z,25.69
2018-10-12T12:26:25.926Z,25.68
2018-10-12T12:27:25.955Z,25.78
2018-10-12T12:28:25.910Z,25.69
2018-10-12T12:29:25.902Z,25.62
2018-10-12T12:30:25.909Z,25.68
2018-10-12T12:31:25.860Z,25.54
2018-10-12T12:32:25.892Z,25.44
2018-10-12T12:33:25.847Z,25.47
2018-10-12T12:34:25.895Z,25.41
2018-10-12T12:35:26.344Z,25.36
2018-10-12T12:36:25.831Z,25.32
2018-10-12T12:37:25.853Z,25.26
2018-10-12T12:38:25.801Z,25.13
2018-10-12T12:39:25.793Z,25.18
2018-10-12T12:40:25.771Z,25.22
2018-10-12T12:41:25.805Z,25.17
2018-10-12T12:42:25.781Z,25.31
2018-10-12T12:43:25.770Z,25.31
2018-10-12T12:44:25.726Z,25.38
2018-10-12T12:45:25.749Z,25.46
2018-10-12T12:46:25.701Z,25.47
2018-10-12T12:47:25.821Z,25.50
2018-10-12T12:48:25.905Z,25.51
2018-10-12T12:49:25.768Z,25.53
2018-10-12T12:50:25.656Z,25.66
2018-10-12T12:51:25.715Z,25.70
2018-10-12T12:52:25.627Z,25.72